Terminal Aerodrome Forecast
Issued by NWS

Home | Current Version | Previous Version | Graphics & Text | Print | Product List | Glossary On
Versions: 1 2 3 4 5 6 7 8 9 10 11 12 13 14
000
FTUS43 KIWX 251100
TAFSBN
TAF
KSBN 251120Z 2512/2612 03005KT 6SM -SHSN BKN030
     FM251400 VRB04KT P6SM SCT030 BKN100
     FM260300 05006KT 3SM -SN BKN015=

USA.gov is the U.S. government's official web portal to all federal, state and local government web resources and services.